Big Bear Station Historical Data
Daily Summary for July 12, 2017 Units:  English    Metric   Both
« Previous Day
Next Day »
Daily Weekly Monthly Yearly Custom
  High: Low: Average:
Temperature: 66.7 °F 52.2 °F 56 °F
Dew Point: 52.8 °F 46.2 °F 48.2 °F
Humidity: 83 % 60 % 75 %
Wind Speed: 4.2 mph 0.0 mph 0.5 mph
Wind Gust: -999.0 mph - -
Wind:- - SW
Pressure: 30.28 in 30.25 in -
Precipitation: 0.00 in    
Historical Graphs
 
 
Tabular Data for July 12, 2017
Time Temperature Dew Point Pressure Wind Wind Speed Wind Gust Humidity Rainfall Rate (Hourly)
00:07 57.0 °F 47.7 °F 30.28 in Calm   -999.0 mph 71 % 0 in
00:22 56.5 °F 47.6 °F 30.28 in Calm   -999.0 mph 72 % 0 in
00:37 56.3 °F 47.8 °F 30.27 in Calm   -999.0 mph 73 % 0 in
00:52 56.7 °F 47.4 °F 30.27 in Calm   -999.0 mph 71 % 0 in
01:07 57.2 °F 48.6 °F 30.27 in Calm   -999.0 mph 73 % 0 in
01:23 56.8 °F 47.9 °F 30.27 in South 1.7 mph -999.0 mph 72 % 0 in
01:38 57.4 °F 48.1 °F 30.27 in Calm   -999.0 mph 71 % 0 in
01:53 57.6 °F 47.9 °F 30.27 in Calm   -999.0 mph 70 % 0 in
02:08 57.7 °F 48.0 °F 30.26 in Calm   -999.0 mph 70 % 0 in
02:24 57.4 °F 47.7 °F 30.26 in Calm   -999.0 mph 70 % 0 in
02:39 56.1 °F 46.5 °F 30.26 in Calm   -999.0 mph 70 % 0 in
02:54 55.0 °F 46.5 °F 30.25 in Calm   -999.0 mph 73 % 0 in
03:09 54.7 °F 46.6 °F 30.25 in Calm   -999.0 mph 74 % 0 in
03:24 54.3 °F 46.9 °F 30.25 in SSE 2.2 mph -999.0 mph 76 % 0 in
03:40 54.0 °F 47.3 °F 30.25 in Calm   -999.0 mph 78 % 0 in
03:55 53.8 °F 47.8 °F 30.25 in Calm   -999.0 mph 80 % 0 in
04:10 53.6 °F 47.2 °F 30.25 in Calm   -999.0 mph 79 % 0 in
04:40 53.1 °F 46.8 °F 30.26 in Calm   -999.0 mph 79 % 0 in
04:56 53.1 °F 46.4 °F 30.26 in Calm   -999.0 mph 78 % 0 in
05:11 52.9 °F 46.2 °F 30.26 in Calm   -999.0 mph 78 % 0 in
05:26 52.5 °F 46.2 °F 30.26 in Calm   -999.0 mph 79 % 0 in
05:41 52.5 °F 47.2 °F 30.27 in Calm   -999.0 mph 82 % 0 in
05:56 52.3 °F 46.6 °F 30.27 in Calm   -999.0 mph 81 % 0 in
06:12 52.2 °F 46.9 °F 30.27 in Calm   -999.0 mph 82 % 0 in
06:27 52.5 °F 47.5 °F 30.27 in Calm   -999.0 mph 83 % 0 in
06:42 52.2 °F 47.2 °F 30.27 in Calm   -999.0 mph 83 % 0 in
06:57 52.9 °F 47.6 °F 30.27 in Calm   -999.0 mph 82 % 0 in
07:12 54.0 °F 48.6 °F 30.27 in Calm   -999.0 mph 82 % 0 in
07:28 54.5 °F 49.1 °F 30.27 in Calm   -999.0 mph 82 % 0 in
07:43 56.3 °F 50.9 °F 30.27 in Calm   -999.0 mph 82 % 0 in
07:58 59.0 °F 52.5 °F 30.27 in NE 1.7 mph -999.0 mph 79 % 0 in
08:13 62.2 °F 52.3 °F 30.28 in NW 3.7 mph -999.0 mph 70 % 0 in
08:29 64.4 °F 52.8 °F 30.28 in Calm   -999.0 mph 66 % 0 in
08:44 65.8 °F 52.4 °F 30.28 in NW 4.2 mph -999.0 mph 62 % 0 in
08:59 66.7 °F 52.4 °F 30.28 in NW 2.7 mph -999.0 mph 60 % 0 in
Big Bear CA Weather
Compliments of Weather Underground - 1.25 mb